createdAt,value
2023-05-18T00:00:58.409Z,1018.78
2023-05-18T00:01:58.393Z,1018.82
2023-05-18T00:02:58.516Z,1018.82
2023-05-18T00:03:58.522Z,1018.81
2023-05-18T00:04:58.364Z,1018.81
2023-05-18T00:05:58.365Z,1018.80
2023-05-18T00:06:58.365Z,1018.80
2023-05-18T00:07:58.360Z,1018.79
2023-05-18T00:08:58.351Z,1018.79
2023-05-18T00:09:58.350Z,1018.80
2023-05-18T00:10:58.350Z,1018.79
2023-05-18T00:11:58.324Z,1018.75
2023-05-18T00:12:58.318Z,1018.73
2023-05-18T00:13:58.303Z,1018.73
2023-05-18T00:14:58.293Z,1018.69
2023-05-18T00:15:58.297Z,1018.71
2023-05-18T00:16:58.283Z,1018.72
2023-05-18T00:17:58.310Z,1018.72
2023-05-18T00:18:58.298Z,1018.72
2023-05-18T00:19:58.252Z,1018.72
2023-05-18T00:20:58.247Z,1018.72
2023-05-18T00:21:58.232Z,1018.73
2023-05-18T00:22:58.229Z,1018.73
2023-05-18T00:23:58.221Z,1018.72
2023-05-18T00:24:58.224Z,1018.72
2023-05-18T00:25:58.209Z,1018.76
2023-05-18T00:26:58.194Z,1018.74
2023-05-18T00:27:58.193Z,1018.74
2023-05-18T00:28:58.185Z,1018.75
2023-05-18T00:29:58.196Z,1018.73
2023-05-18T00:30:58.167Z,1018.77
2023-05-18T00:31:58.250Z,1018.72
2023-05-18T00:32:58.203Z,1018.76
2023-05-18T00:33:58.146Z,1018.74
2023-05-18T00:34:58.129Z,1018.76
2023-05-18T00:35:58.138Z,1018.79
2023-05-18T00:36:58.122Z,1018.80
2023-05-18T00:37:58.119Z,1018.73
2023-05-18T00:38:58.105Z,1018.80
2023-05-18T00:39:58.098Z,1018.78
2023-05-18T00:40:58.084Z,1018.80
2023-05-18T00:41:58.091Z,1018.77
2023-05-18T00:42:58.064Z,1018.75
2023-05-18T00:43:58.061Z,1018.74
2023-05-18T00:44:58.055Z,1018.74
2023-05-18T00:45:58.064Z,1018.73
2023-05-18T00:46:58.050Z,1018.72
2023-05-18T00:47:58.037Z,1018.73
2023-05-18T00:48:58.021Z,1018.74
2023-05-18T00:49:58.016Z,1018.69
2023-05-18T00:50:58.006Z,1018.74
2023-05-18T00:51:57.999Z,1018.70
2023-05-18T00:52:57.992Z,1018.72
2023-05-18T00:53:57.986Z,1018.72
2023-05-18T00:54:57.969Z,1018.71
2023-05-18T00:55:57.968Z,1018.74
2023-05-18T00:56:57.954Z,1018.72
2023-05-18T00:57:57.957Z,1018.70
2023-05-18T00:58:57.947Z,1018.71
2023-05-18T00:59:57.941Z,1018.67
2023-05-18T01:00:57.956Z,1018.68
2023-05-18T01:01:57.943Z,1018.66
2023-05-18T01:02:58.044Z,1018.68
2023-05-18T01:03:57.904Z,1018.67
2023-05-18T01:04:57.897Z,1018.66
2023-05-18T01:05:57.890Z,1018.66
2023-05-18T01:06:57.871Z,1018.65
2023-05-18T01:07:57.877Z,1018.64
2023-05-18T01:08:57.872Z,1018.61
2023-05-18T01:09:57.858Z,1018.62
2023-05-18T01:10:57.861Z,1018.62
2023-05-18T01:11:57.830Z,1018.58
2023-05-18T01:12:57.838Z,1018.60
2023-05-18T01:13:57.817Z,1018.58
2023-05-18T01:14:57.795Z,1018.59
2023-05-18T01:15:57.808Z,1018.60
2023-05-18T01:16:57.867Z,1018.56
2023-05-18T01:17:57.825Z,1018.59
2023-05-18T01:18:57.808Z,1018.58
2023-05-18T01:19:57.776Z,1018.61
2023-05-18T01:20:57.773Z,1018.56
2023-05-18T01:21:57.743Z,1018.57
2023-05-18T01:22:57.734Z,1018.55
2023-05-18T01:23:57.731Z,1018.55
2023-05-18T01:24:57.718Z,1018.55
2023-05-18T01:25:57.720Z,1018.56
2023-05-18T01:26:57.719Z,1018.53
2023-05-18T01:27:57.697Z,1018.57
2023-05-18T01:28:57.684Z,1018.57
2023-05-18T01:29:57.683Z,1018.56
2023-05-18T01:30:57.721Z,1018.54
2023-05-18T01:31:57.671Z,1018.53
2023-05-18T01:32:57.681Z,1018.50
2023-05-18T01:33:57.651Z,1018.53
2023-05-18T01:34:57.639Z,1018.55
2023-05-18T01:35:57.627Z,1018.54
2023-05-18T01:36:57.621Z,1018.58
2023-05-18T01:37:57.615Z,1018.55
2023-05-18T01:38:57.599Z,1018.58
2023-05-18T01:39:57.596Z,1018.53
2023-05-18T01:40:57.595Z,1018.54
2023-05-18T01:41:57.582Z,1018.54
2023-05-18T01:42:57.570Z,1018.54
2023-05-18T01:43:57.561Z,1018.57
2023-05-18T01:44:57.555Z,1018.58
2023-05-18T01:45:57.624Z,1018.58
2023-05-18T01:46:57.533Z,1018.58
2023-05-18T01:47:57.603Z,1018.56
2023-05-18T01:48:57.518Z,1018.58
2023-05-18T01:49:57.504Z,1018.59
2023-05-18T01:50:57.507Z,1018.59
2023-05-18T01:51:57.494Z,1018.61
2023-05-18T01:52:57.484Z,1018.62
2023-05-18T01:53:57.480Z,1018.62
2023-05-18T01:54:57.477Z,1018.59
2023-05-18T01:55:57.465Z,1018.59
2023-05-18T01:56:57.449Z,1018.54
2023-05-18T01:57:57.444Z,1018.61
2023-05-18T01:58:57.442Z,1018.58
2023-05-18T01:59:57.426Z,1018.57
2023-05-18T02:00:57.425Z,1018.61
2023-05-18T02:01:59.372Z,1018.59
2023-05-18T02:02:57.477Z,1018.60
2023-05-18T02:03:57.558Z,1018.61
2023-05-18T02:04:57.380Z,1018.62
2023-05-18T02:05:57.375Z,1018.60
2023-05-18T02:06:57.373Z,1018.58
2023-05-18T02:07:57.373Z,1018.60
2023-05-18T02:08:57.350Z,1018.61
2023-05-18T02:09:57.337Z,1018.59
2023-05-18T02:10:57.326Z,1018.56
2023-05-18T02:11:57.327Z,1018.59
2023-05-18T02:12:57.322Z,1018.57
2023-05-18T02:13:57.306Z,1018.61
2023-05-18T02:14:57.301Z,1018.60
2023-05-18T02:15:57.307Z,1018.59
2023-05-18T02:16:57.283Z,1018.64
2023-05-18T02:17:57.309Z,1018.61
2023-05-18T02:18:57.326Z,1018.63
2023-05-18T02:19:57.260Z,1018.59
2023-05-18T02:20:57.250Z,1018.63
2023-05-18T02:21:57.233Z,1018.66
2023-05-18T02:22:57.231Z,1018.63
2023-05-18T02:23:57.214Z,1018.63
2023-05-18T02:24:57.206Z,1018.64
2023-05-18T02:25:57.199Z,1018.63
2023-05-18T02:26:57.199Z,1018.64
2023-05-18T02:27:57.186Z,1018.64
2023-05-18T02:28:57.176Z,1018.63
2023-05-18T02:29:57.164Z,1018.67
2023-05-18T02:30:57.157Z,1018.62
2023-05-18T02:31:57.172Z,1018.62
2023-05-18T02:32:57.187Z,1018.62
2023-05-18T02:33:57.133Z,1018.62
2023-05-18T02:34:57.114Z,1018.63
2023-05-18T02:35:57.254Z,1018.62
2023-05-18T02:36:57.108Z,1018.65
2023-05-18T02:37:57.097Z,1018.63
2023-05-18T02:38:57.090Z,1018.65
2023-05-18T02:39:57.088Z,1018.64
2023-05-18T02:40:57.075Z,1018.62
2023-05-18T02:41:57.069Z,1018.65
2023-05-18T02:42:57.054Z,1018.68
2023-05-18T02:43:57.063Z,1018.66
2023-05-18T02:44:57.033Z,1018.65
2023-05-18T02:45:57.053Z,1018.70
2023-05-18T02:46:57.018Z,1018.64
2023-05-18T02:47:57.118Z,1018.67
2023-05-18T02:48:57.005Z,1018.72
2023-05-18T02:49:56.997Z,1018.69
2023-05-18T02:50:57.000Z,1018.68
2023-05-18T02:51:56.978Z,1018.71
2023-05-18T02:52:56.985Z,1018.69
2023-05-18T02:53:56.960Z,1018.68
2023-05-18T02:54:56.965Z,1018.70
2023-05-18T02:55:56.940Z,1018.69
2023-05-18T02:56:57.036Z,1018.67
2023-05-18T02:57:56.970Z,1018.72
2023-05-18T02:58:56.916Z,1018.73
2023-05-18T02:59:56.909Z,1018.71
2023-05-18T03:00:56.932Z,1018.71
2023-05-18T03:01:56.886Z,1018.76
2023-05-18T03:02:56.918Z,1018.71
2023-05-18T03:03:56.893Z,1018.74
2023-05-18T03:04:56.873Z,1018.72
2023-05-18T03:05:56.858Z,1018.72
2023-05-18T03:06:56.849Z,1018.80
2023-05-18T03:07:56.862Z,1018.73
2023-05-18T03:08:56.831Z,1018.79
2023-05-18T03:09:56.830Z,1018.76
2023-05-18T03:10:56.817Z,1018.78
2023-05-18T03:11:56.820Z,1018.76
2023-05-18T03:12:56.802Z,1018.75
2023-05-18T03:13:56.789Z,1018.76
2023-05-18T03:14:56.777Z,1018.73
2023-05-18T03:15:56.779Z,1018.77
2023-05-18T03:16:56.828Z,1018.76
2023-05-18T03:17:56.798Z,1018.78
2023-05-18T03:18:56.786Z,1018.73
2023-05-18T03:19:56.733Z,1018.76
2023-05-18T03:20:56.722Z,1018.78
2023-05-18T03:21:56.724Z,1018.79
2023-05-18T03:22:56.704Z,1018.79
2023-05-18T03:23:56.786Z,1018.78
2023-05-18T03:24:56.691Z,1018.81
2023-05-18T03:25:56.674Z,1018.78
2023-05-18T03:26:56.683Z,1018.80
2023-05-18T03:27:56.671Z,1018.77
2023-05-18T03:28:56.652Z,1018.82
2023-05-18T03:29:56.645Z,1018.79
2023-05-18T03:30:56.669Z,1018.76
2023-05-18T03:31:56.685Z,1018.80
2023-05-18T03:32:56.655Z,1018.77
2023-05-18T03:33:56.612Z,1018.78
2023-05-18T03:34:56.601Z,1018.79
2023-05-18T03:35:56.596Z,1018.81
2023-05-18T03:36:56.593Z,1018.81
2023-05-18T03:37:56.574Z,1018.81
2023-05-18T03:38:56.585Z,1018.84
2023-05-18T03:39:56.610Z,1018.82
2023-05-18T03:40:56.552Z,1018.80
2023-05-18T03:41:56.551Z,1018.81
2023-05-18T03:42:56.534Z,1018.85
2023-05-18T03:43:56.544Z,1018.82
2023-05-18T03:44:56.505Z,1018.84
2023-05-18T03:45:56.541Z,1018.87
2023-05-18T03:46:56.501Z,1018.86
2023-05-18T03:47:56.515Z,1018.86
2023-05-18T03:48:56.488Z,1018.84
2023-05-18T03:49:56.463Z,1018.87
2023-05-18T03:50:56.468Z,1018.84
2023-05-18T03:51:56.471Z,1018.90
2023-05-18T03:52:56.469Z,1018.83
2023-05-18T03:53:56.429Z,1018.89
2023-05-18T03:54:56.432Z,1018.91
2023-05-18T03:55:56.416Z,1018.94
2023-05-18T03:56:56.410Z,1018.96
2023-05-18T03:57:56.398Z,1018.94
2023-05-18T03:58:56.386Z,1018.90
2023-05-18T03:59:56.384Z,1018.92
2023-05-18T04:00:56.380Z,1018.93
2023-05-18T04:01:56.450Z,1018.92
2023-05-18T04:02:56.463Z,1018.94
2023-05-18T04:03:56.644Z,1018.89
2023-05-18T04:04:56.333Z,1018.93
2023-05-18T04:05:56.335Z,1018.87
2023-05-18T04:06:56.312Z,1018.92
2023-05-18T04:07:56.305Z,1018.88
2023-05-18T04:08:56.283Z,1018.92
2023-05-18T04:09:56.284Z,1018.94
2023-05-18T04:10:56.272Z,1018.90
2023-05-18T04:11:56.266Z,1018.88
2023-05-18T04:12:56.261Z,1018.94
2023-05-18T04:13:56.244Z,1018.95
2023-05-18T04:14:56.249Z,1018.96
2023-05-18T04:15:56.259Z,1018.93
2023-05-18T04:16:56.269Z,1018.94
2023-05-18T04:17:56.254Z,1018.91
2023-05-18T04:18:56.226Z,1018.90
2023-05-18T04:19:56.197Z,1018.90
2023-05-18T04:20:56.177Z,1018.96
2023-05-18T04:21:56.174Z,1018.92
2023-05-18T04:22:56.168Z,1018.92
2023-05-18T04:23:56.157Z,1018.95
2023-05-18T04:24:56.154Z,1018.96
2023-05-18T04:25:56.138Z,1018.96
2023-05-18T04:26:56.137Z,1018.94
2023-05-18T04:27:56.133Z,1018.98
2023-05-18T04:28:56.114Z,1018.96
2023-05-18T04:29:56.100Z,1018.93
2023-05-18T04:30:56.096Z,1018.97
2023-05-18T04:31:56.098Z,1019.00
2023-05-18T04:32:56.102Z,1018.98
2023-05-18T04:33:56.063Z,1018.96
2023-05-18T04:34:56.054Z,1018.97
2023-05-18T04:35:56.068Z,1019.02
2023-05-18T04:36:56.074Z,1018.98
2023-05-18T04:37:56.026Z,1018.96
2023-05-18T04:38:56.025Z,1018.97
2023-05-18T04:39:56.004Z,1019.00
2023-05-18T04:40:55.994Z,1019.01
2023-05-18T04:41:55.986Z,1019.01
2023-05-18T04:42:55.978Z,1019.02
2023-05-18T04:43:56.056Z,1018.99
2023-05-18T04:44:55.965Z,1019.04
2023-05-18T04:45:55.969Z,1019.00
2023-05-18T04:46:55.946Z,1018.98
2023-05-18T04:47:55.988Z,1019.06
2023-05-18T04:48:55.986Z,1018.99
2023-05-18T04:49:55.925Z,1019.00
2023-05-18T04:50:55.913Z,1019.03
2023-05-18T04:51:55.895Z,1019.00
2023-05-18T04:52:55.890Z,1019.00
2023-05-18T04:53:55.873Z,1019.01
2023-05-18T04:54:55.893Z,1019.06
2023-05-18T04:55:55.857Z,1019.02
2023-05-18T04:56:55.845Z,1019.02
2023-05-18T04:57:55.836Z,1019.02
2023-05-18T04:58:55.825Z,1019.06
2023-05-18T04:59:55.824Z,1019.07
2023-05-18T05:00:55.807Z,1019.10
2023-05-18T05:01:55.861Z,1019.08
2023-05-18T05:02:55.932Z,1019.12
2023-05-18T05:03:58.171Z,1019.09
2023-05-18T05:04:55.773Z,1019.14
2023-05-18T05:05:55.754Z,1019.11
2023-05-18T05:06:55.750Z,1019.11
2023-05-18T05:07:55.835Z,1019.13
2023-05-18T05:08:55.734Z,1019.10
2023-05-18T05:09:55.724Z,1019.15
2023-05-18T05:10:55.709Z,1019.17
2023-05-18T05:11:55.715Z,1019.11
2023-05-18T05:12:55.698Z,1019.10
2023-05-18T05:13:55.685Z,1019.07
2023-05-18T05:14:55.672Z,1019.11
2023-05-18T05:15:55.706Z,1019.13
2023-05-18T05:16:55.661Z,1019.10
2023-05-18T05:17:55.651Z,1019.10
2023-05-18T05:18:55.665Z,1019.15
2023-05-18T05:19:55.628Z,1019.13
2023-05-18T05:20:55.637Z,1019.14
2023-05-18T05:21:55.620Z,1019.16
2023-05-18T05:22:55.639Z,1019.15
2023-05-18T05:23:55.607Z,1019.15
2023-05-18T05:24:55.593Z,1019.16
2023-05-18T05:25:55.579Z,1019.13
2023-05-18T05:26:55.578Z,1019.18
2023-05-18T05:27:55.560Z,1019.20
2023-05-18T05:28:55.548Z,1019.19
2023-05-18T05:29:55.545Z,1019.22
2023-05-18T05:30:55.540Z,1019.21
2023-05-18T05:31:55.624Z,1019.24
2023-05-18T05:32:55.540Z,1019.27
2023-05-18T05:33:55.516Z,1019.25
2023-05-18T05:34:55.500Z,1019.29
2023-05-18T05:35:55.494Z,1019.26
2023-05-18T05:36:55.478Z,1019.24
2023-05-18T05:37:55.478Z,1019.23
2023-05-18T05:38:55.460Z,1019.19
2023-05-18T05:39:55.454Z,1019.22
2023-05-18T05:40:55.443Z,1019.23
2023-05-18T05:41:55.440Z,1019.26
2023-05-18T05:42:55.431Z,1019.24
2023-05-18T05:43:55.429Z,1019.21
2023-05-18T05:44:55.411Z,1019.27
2023-05-18T05:45:55.402Z,1019.26
2023-05-18T05:46:55.405Z,1019.29
2023-05-18T05:47:55.510Z,1019.25
2023-05-18T05:48:55.386Z,1019.25
2023-05-18T05:49:55.365Z,1019.27
2023-05-18T05:50:55.368Z,1019.27
2023-05-18T05:51:55.341Z,1019.24
2023-05-18T05:52:55.343Z,1019.26
2023-05-18T05:53:55.330Z,1019.23
2023-05-18T05:54:55.338Z,1019.23
2023-05-18T05:55:55.315Z,1019.21
2023-05-18T05:56:55.324Z,1019.24
2023-05-18T05:57:55.305Z,1019.24
2023-05-18T05:58:55.295Z,1019.27
2023-05-18T05:59:55.280Z,1019.26
2023-05-18T06:00:55.277Z,1019.26
2023-05-18T06:01:55.294Z,1019.29
2023-05-18T06:02:55.304Z,1019.31
2023-05-18T06:03:55.310Z,1019.25
2023-05-18T06:04:55.239Z,1019.31
2023-05-18T06:05:55.223Z,1019.36
2023-05-18T06:06:55.225Z,1019.29
2023-05-18T06:07:55.219Z,1019.32
2023-05-18T06:08:55.211Z,1019.35
2023-05-18T06:09:55.203Z,1019.34
2023-05-18T06:10:55.199Z,1019.38
2023-05-18T06:11:55.182Z,1019.33
2023-05-18T06:12:55.175Z,1019.35
2023-05-18T06:13:55.169Z,1019.37
2023-05-18T06:14:55.149Z,1019.38
2023-05-18T06:15:55.165Z,1019.36
2023-05-18T06:16:55.175Z,1019.37
2023-05-18T06:17:55.178Z,1019.35
2023-05-18T06:18:55.135Z,1019.33
2023-05-18T06:19:55.117Z,1019.37
2023-05-18T06:20:55.109Z,1019.33
2023-05-18T06:21:55.099Z,1019.34
2023-05-18T06:22:55.089Z,1019.36
2023-05-18T06:23:55.082Z,1019.39
2023-05-18T06:24:55.078Z,1019.40
2023-05-18T06:25:55.069Z,1019.45
2023-05-18T06:26:55.049Z,1019.42
2023-05-18T06:27:55.054Z,1019.46
2023-05-18T06:28:55.047Z,1019.44
2023-05-18T06:29:55.035Z,1019.48
2023-05-18T06:30:55.027Z,1019.53
2023-05-18T06:31:55.042Z,1019.51
2023-05-18T06:32:55.071Z,1019.49
2023-05-18T06:33:55.004Z,1019.53
2023-05-18T06:34:54.992Z,1019.53
2023-05-18T06:35:55.000Z,1019.57
2023-05-18T06:36:54.983Z,1019.58
2023-05-18T06:37:54.974Z,1019.54
2023-05-18T06:38:54.974Z,1019.52
2023-05-18T06:39:54.963Z,1019.51
2023-05-18T06:40:54.948Z,1019.50
2023-05-18T06:41:54.937Z,1019.50
2023-05-18T06:42:54.930Z,1019.51
2023-05-18T06:43:54.929Z,1019.48
2023-05-18T06:44:54.917Z,1019.50
2023-05-18T06:45:54.989Z,1019.52
2023-05-18T06:46:54.888Z,1019.50
2023-05-18T06:47:54.925Z,1019.50
2023-05-18T06:48:54.894Z,1019.48
2023-05-18T06:49:54.886Z,1019.53
2023-05-18T06:50:54.868Z,1019.51
2023-05-18T06:51:54.872Z,1019.54
2023-05-18T06:52:54.853Z,1019.47
2023-05-18T06:53:54.846Z,1019.48
2023-05-18T06:54:54.839Z,1019.49
2023-05-18T06:55:54.828Z,1019.50
2023-05-18T06:56:54.820Z,1019.52
2023-05-18T06:57:54.815Z,1019.50
2023-05-18T06:58:54.800Z,1019.50
2023-05-18T06:59:54.794Z,1019.50
2023-05-18T07:00:54.788Z,1019.53
2023-05-18T07:01:54.838Z,1019.55
2023-05-18T07:02:54.817Z,1019.55
2023-05-18T07:03:54.798Z,1019.50
2023-05-18T07:04:54.760Z,1019.50
2023-05-18T07:05:54.740Z,1019.50
2023-05-18T07:06:54.736Z,1019.51
2023-05-18T07:07:54.758Z,1019.50
2023-05-18T07:08:54.720Z,1019.48
2023-05-18T07:09:54.718Z,1019.48
2023-05-18T07:10:54.708Z,1019.47
2023-05-18T07:11:54.689Z,1019.48
2023-05-18T07:12:54.701Z,1019.51
2023-05-18T07:13:54.680Z,1019.47
2023-05-18T07:14:54.673Z,1019.53
2023-05-18T07:15:54.686Z,1019.55
2023-05-18T07:16:54.668Z,1019.53
2023-05-18T07:17:54.667Z,1019.54
2023-05-18T07:18:54.662Z,1019.48
2023-05-18T07:19:54.640Z,1019.54
2023-05-18T07:20:54.623Z,1019.53
2023-05-18T07:21:54.623Z,1019.55
2023-05-18T07:22:54.609Z,1019.50
2023-05-18T07:23:54.608Z,1019.50
2023-05-18T07:24:54.605Z,1019.48
2023-05-18T07:25:54.592Z,1019.49
2023-05-18T07:26:54.581Z,1019.50
2023-05-18T07:27:54.741Z,1019.50
2023-05-18T07:28:54.560Z,1019.55
2023-05-18T07:29:54.548Z,1019.57
2023-05-18T07:30:54.546Z,1019.48
2023-05-18T07:31:54.774Z,1019.48
2023-05-18T07:32:54.560Z,1019.45
2023-05-18T07:33:54.534Z,1019.46
2023-05-18T07:34:54.518Z,1019.48
2023-05-18T07:35:54.507Z,1019.41
2023-05-18T07:36:54.501Z,1019.43
2023-05-18T07:37:54.497Z,1019.44
2023-05-18T07:38:54.487Z,1019.42
2023-05-18T07:39:54.485Z,1019.41
2023-05-18T07:40:54.474Z,1019.41
2023-05-18T07:41:54.468Z,1019.44
2023-05-18T07:42:54.453Z,1019.43
2023-05-18T07:43:54.460Z,1019.44
2023-05-18T07:44:54.446Z,1019.41
2023-05-18T07:45:54.426Z,1019.39
2023-05-18T07:46:54.487Z,1019.42
2023-05-18T07:47:54.457Z,1019.39
2023-05-18T07:48:54.418Z,1019.41
2023-05-18T07:49:54.407Z,1019.37
2023-05-18T07:50:54.400Z,1019.38
2023-05-18T07:51:54.397Z,1019.39
2023-05-18T07:52:54.397Z,1019.35
2023-05-18T07:53:54.384Z,1019.36
2023-05-18T07:54:54.375Z,1019.37
2023-05-18T07:55:54.364Z,1019.35
2023-05-18T07:56:54.353Z,1019.37
2023-05-18T07:57:54.356Z,1019.38
2023-05-18T07:58:54.357Z,1019.40
2023-05-18T07:59:54.364Z,1019.40
2023-05-18T08:00:54.353Z,1019.37
2023-05-18T08:01:54.356Z,1019.37
2023-05-18T08:02:54.424Z,1019.35
2023-05-18T08:03:54.410Z,1019.31
2023-05-18T08:04:54.297Z,1019.32
2023-05-18T08:05:54.299Z,1019.29
2023-05-18T08:06:54.286Z,1019.35
2023-05-18T08:07:54.276Z,1019.32
2023-05-18T08:08:54.272Z,1019.33
2023-05-18T08:09:54.275Z,1019.35
2023-05-18T08:10:54.261Z,1019.33
2023-05-18T08:11:54.258Z,1019.30
2023-05-18T08:12:54.244Z,1019.34
2023-05-18T08:13:54.241Z,1019.33
2023-05-18T08:14:54.233Z,1019.32
2023-05-18T08:16:09.791Z,1019.33
2023-05-18T08:16:54.257Z,1019.29
2023-05-18T08:17:54.273Z,1019.28
2023-05-18T08:18:54.238Z,1019.28
2023-05-18T08:19:54.201Z,1019.26
2023-05-18T08:20:54.195Z,1019.24
2023-05-18T08:21:54.183Z,1019.22
2023-05-18T08:22:54.183Z,1019.19
2023-05-18T08:23:54.182Z,1019.18
2023-05-18T08:24:54.162Z,1019.16
2023-05-18T08:25:54.161Z,1019.14
2023-05-18T08:26:54.159Z,1019.12
2023-05-18T08:27:54.156Z,1019.12
2023-05-18T08:28:54.131Z,1019.10
2023-05-18T08:29:54.136Z,1019.11
2023-05-18T08:30:54.126Z,1019.08
2023-05-18T08:31:54.132Z,1019.10
2023-05-18T08:32:54.161Z,1019.10
2023-05-18T08:33:54.120Z,1019.11
2023-05-18T08:34:54.102Z,1019.10
2023-05-18T08:35:54.088Z,1019.10
2023-05-18T08:36:54.085Z,1019.13
2023-05-18T08:37:54.090Z,1019.12
2023-05-18T08:38:54.077Z,1019.12
2023-05-18T08:39:54.068Z,1019.11
2023-05-18T08:40:54.059Z,1019.10
2023-05-18T08:41:54.064Z,1019.14
2023-05-18T08:42:54.067Z,1019.15
2023-05-18T08:43:54.087Z,1019.11
2023-05-18T08:44:54.040Z,1019.14
2023-05-18T08:45:54.030Z,1019.13
2023-05-18T08:46:54.020Z,1019.12
2023-05-18T08:47:54.082Z,1019.08
2023-05-18T08:48:54.128Z,1019.08
2023-05-18T08:49:54.009Z,1019.12
2023-05-18T08:50:54.009Z,1019.11
2023-05-18T08:51:54.004Z,1019.11
2023-05-18T08:52:53.991Z,1019.09
2023-05-18T08:53:54.111Z,1019.10
2023-05-18T08:54:53.972Z,1019.07
2023-05-18T08:55:53.980Z,1019.09
2023-05-18T08:56:53.969Z,1019.09
2023-05-18T08:57:53.971Z,1019.10
2023-05-18T08:58:53.960Z,1019.12
2023-05-18T08:59:53.955Z,1019.11
2023-05-18T09:00:53.951Z,1019.13
2023-05-18T09:01:54.020Z,1019.14
2023-05-18T09:02:53.958Z,1019.15
2023-05-18T09:03:53.927Z,1019.11
2023-05-18T09:04:53.966Z,1019.09
2023-05-18T09:05:53.910Z,1019.11
2023-05-18T09:06:53.906Z,1019.12
2023-05-18T09:07:53.909Z,1019.11
2023-05-18T09:08:53.943Z,1019.13
2023-05-18T09:09:53.902Z,1019.18
2023-05-18T09:10:53.888Z,1019.15
2023-05-18T09:11:53.892Z,1019.13
2023-05-18T09:12:53.879Z,1019.11
2023-05-18T09:13:53.886Z,1019.09
2023-05-18T09:14:53.872Z,1019.13
2023-05-18T09:15:53.914Z,1019.16
2023-05-18T09:16:53.862Z,1019.15
2023-05-18T09:17:53.887Z,1019.13
2023-05-18T09:18:53.919Z,1019.16
2023-05-18T09:19:53.855Z,1019.13
2023-05-18T09:20:53.854Z,1019.09
2023-05-18T09:21:53.852Z,1019.10
2023-05-18T09:22:53.841Z,1019.03
2023-05-18T09:23:53.846Z,1019.06
2023-05-18T09:24:53.838Z,1019.05
2023-05-18T09:25:53.826Z,1019.07
2023-05-18T09:26:53.823Z,1019.07
2023-05-18T09:27:53.822Z,1019.09
2023-05-18T09:28:53.827Z,1019.09
2023-05-18T09:29:53.804Z,1019.09
2023-05-18T09:30:53.808Z,1019.04
2023-05-18T09:31:53.822Z,1019.07
2023-05-18T09:32:53.938Z,1019.08
2023-05-18T09:33:53.855Z,1019.04
2023-05-18T09:34:53.802Z,1018.98
2023-05-18T09:35:53.796Z,1019.01
2023-05-18T09:36:53.793Z,1018.99
2023-05-18T09:37:53.781Z,1019.04
2023-05-18T09:38:53.791Z,1019.05
2023-05-18T09:39:53.784Z,1019.04
2023-05-18T09:40:53.783Z,1019.03
2023-05-18T09:41:53.768Z,1018.97
2023-05-18T09:42:53.776Z,1018.98
2023-05-18T09:43:53.776Z,1018.97
2023-05-18T09:44:53.784Z,1018.95
2023-05-18T09:45:53.766Z,1018.94
2023-05-18T09:46:53.831Z,1018.91
2023-05-18T09:47:53.823Z,1018.87
2023-05-18T09:48:53.758Z,1018.91
2023-05-18T09:49:53.759Z,1018.92
2023-05-18T09:50:53.768Z,1018.94
2023-05-18T09:51:53.810Z,1018.89
2023-05-18T09:52:53.763Z,1018.83
2023-05-18T09:53:53.755Z,1018.90
2023-05-18T09:54:53.751Z,1018.83
2023-05-18T09:55:53.743Z,1018.89
2023-05-18T09:57:09.055Z,1018.91
2023-05-18T09:57:53.754Z,1018.89
2023-05-18T09:58:53.809Z,1018.93
2023-05-18T09:59:53.749Z,1018.94
2023-05-18T10:00:53.881Z,1018.90
2023-05-18T10:01:53.760Z,1018.89
2023-05-18T10:02:53.808Z,1018.85
2023-05-18T10:03:53.829Z,1018.78
2023-05-18T10:04:53.783Z,1018.77
2023-05-18T10:05:53.752Z,1018.78
2023-05-18T10:06:53.743Z,1018.80
2023-05-18T10:07:53.759Z,1018.81
2023-05-18T10:08:53.782Z,1018.80
2023-05-18T10:09:53.789Z,1018.83
2023-05-18T10:10:53.806Z,1018.85
2023-05-18T10:11:53.758Z,1018.87
2023-05-18T10:12:53.904Z,1018.83
2023-05-18T10:13:53.787Z,1018.83
2023-05-18T10:14:53.739Z,1018.81
2023-05-18T10:15:53.792Z,1018.81
2023-05-18T10:17:03.543Z,1018.83
2023-05-18T10:17:53.879Z,1018.76
2023-05-18T10:18:53.837Z,1018.76
2023-05-18T10:19:53.769Z,1018.75
2023-05-18T10:20:53.756Z,1018.73
2023-05-18T10:21:53.833Z,1018.70
2023-05-18T10:22:53.827Z,1018.71
2023-05-18T10:23:53.778Z,1018.69
2023-05-18T10:24:53.829Z,1018.69
2023-05-18T10:25:53.737Z,1018.59
2023-05-18T10:26:54.705Z,1018.57
2023-05-18T10:27:53.758Z,1018.58
2023-05-18T10:28:53.745Z,1018.64
2023-05-18T10:29:53.740Z,1018.60
2023-05-18T10:30:53.791Z,1018.58
2023-05-18T10:31:53.740Z,1018.60
2023-05-18T10:32:53.821Z,1018.66
2023-05-18T10:33:53.751Z,1018.66
2023-05-18T10:34:53.759Z,1018.68
2023-05-18T10:35:53.783Z,1018.64
2023-05-18T10:36:53.777Z,1018.71
2023-05-18T10:37:53.746Z,1018.63
2023-05-18T10:38:53.749Z,1018.60
2023-05-18T10:39:53.746Z,1018.64
2023-05-18T10:40:53.746Z,1018.59
2023-05-18T10:41:53.746Z,1018.65
2023-05-18T10:42:53.757Z,1018.60
2023-05-18T10:43:53.746Z,1018.58
2023-05-18T10:44:53.765Z,1018.62
2023-05-18T10:45:53.789Z,1018.56
2023-05-18T10:46:53.832Z,1018.57
2023-05-18T10:47:53.912Z,1018.59
2023-05-18T10:48:53.757Z,1018.53
2023-05-18T10:49:53.807Z,1018.59
2023-05-18T10:50:53.759Z,1018.59
2023-05-18T10:51:53.774Z,1018.59
2023-05-18T10:52:53.766Z,1018.62
2023-05-18T10:53:55.272Z,1018.58
2023-05-18T10:54:53.768Z,1018.60
2023-05-18T10:55:53.774Z,1018.61
2023-05-18T10:56:53.765Z,1018.51
2023-05-18T10:57:53.763Z,1018.52
2023-05-18T10:58:53.770Z,1018.50
2023-05-18T10:59:53.772Z,1018.51
2023-05-18T11:00:53.768Z,1018.51
2023-05-18T11:01:53.855Z,1018.45
2023-05-18T11:02:53.822Z,1018.43
2023-05-18T11:03:53.798Z,1018.41
2023-05-18T11:04:54.323Z,1018.40
2023-05-18T11:05:53.774Z,1018.40
2023-05-18T11:06:53.792Z,1018.37
2023-05-18T11:07:53.788Z,1018.37
2023-05-18T11:08:53.796Z,1018.35
2023-05-18T11:09:53.793Z,1018.38
2023-05-18T11:10:53.786Z,1018.35
2023-05-18T11:11:53.798Z,1018.35
2023-05-18T11:12:53.783Z,1018.30
2023-05-18T11:13:53.801Z,1018.34
2023-05-18T11:14:53.780Z,1018.30
2023-05-18T11:15:53.997Z,1018.27
2023-05-18T11:16:53.827Z,1018.22
2023-05-18T11:17:53.845Z,1018.16
2023-05-18T11:18:53.830Z,1018.18
2023-05-18T11:19:53.785Z,1018.21
2023-05-18T11:20:53.796Z,1018.23
2023-05-18T11:21:53.804Z,1018.16
2023-05-18T11:22:53.803Z,1018.22
2023-05-18T11:23:53.793Z,1018.18
2023-05-18T11:24:53.794Z,1018.18
2023-05-18T11:25:53.794Z,1018.17
2023-05-18T11:26:53.839Z,1018.17
2023-05-18T11:27:53.790Z,1018.13
2023-05-18T11:28:53.812Z,1018.13
2023-05-18T11:30:07.607Z,1018.15
2023-05-18T11:30:53.800Z,1018.16
2023-05-18T11:31:53.923Z,1018.12
2023-05-18T11:32:53.886Z,1018.10
2023-05-18T11:33:53.795Z,1018.03
2023-05-18T11:34:53.798Z,1018.03
2023-05-18T11:35:53.794Z,1017.98
2023-05-18T11:36:53.827Z,1017.95
2023-05-18T11:37:53.786Z,1017.96
2023-05-18T11:38:53.863Z,1017.94
2023-05-18T11:39:59.674Z,1017.92
2023-05-18T11:40:53.786Z,1017.93
2023-05-18T11:41:53.800Z,1017.95
2023-05-18T11:42:53.781Z,1017.95
2023-05-18T11:43:53.771Z,1017.96
2023-05-18T11:44:53.775Z,1017.98
2023-05-18T11:45:53.774Z,1017.93
2023-05-18T11:46:53.775Z,1017.95
2023-05-18T11:47:53.860Z,1017.92
2023-05-18T11:48:53.801Z,1017.91
2023-05-18T11:49:53.796Z,1017.93
2023-05-18T11:50:53.758Z,1017.95
2023-05-18T11:51:53.815Z,1017.91
2023-05-18T11:52:53.760Z,1017.91
2023-05-18T11:53:53.762Z,1017.87
2023-05-18T11:54:53.751Z,1017.89
2023-05-18T11:55:53.752Z,1017.86
2023-05-18T11:56:53.740Z,1017.79
2023-05-18T11:57:53.742Z,1017.80
2023-05-18T11:58:53.745Z,1017.81
2023-05-18T11:59:53.738Z,1017.78
2023-05-18T12:00:53.736Z,1017.89
2023-05-18T12:01:53.776Z,1017.88
2023-05-18T12:02:53.809Z,1017.82
2023-05-18T12:03:53.837Z,1017.83
2023-05-18T12:04:53.741Z,1017.80
2023-05-18T12:05:53.715Z,1017.73